Aviation Digital Data Service (ADDS)

Output produced by METARs form (1331 UTC 25 February 2018)
found at http://www.aviationweather.gov/adds/metars/
 
KHBG 251319Z AUTO 01006KT 10SM -RA FEW006 SCT010 OVC044 13/13 A3016 RMK AO2 P0000 T01330128
KHBG 251253Z AUTO 02006KT 5SM -RA BR OVC007 14/14 A3015 RMK AO2 SLP208 P0015 T01390139
KHBG 251234Z AUTO 34006KT 10SM -RA BKN007 BKN029 OVC033 14/14 A3014 RMK AO2 P0012 T01390139
KHBG 251230Z AUTO 34005KT 10SM -RA SCT006 OVC033 14/14 A3013 RMK AO2 P0012 T01390139
KHBG 251214Z AUTO 34008KT 5SM RA BR FEW023 OVC030 14/14 A3012 RMK AO2 P0010 T01390139
KHBG 251153Z AUTO 34010G19KT 5SM RA BR SCT016 BKN021 OVC028 14/13 A3010 RMK AO2 PK WND 35028/1135 WSHFT 1130 RAB27 SLP189 P0004 60004 70009 T01440133 10222 20144 51030
KHBG 251150Z AUTO 33011G25KT 8SM RA SCT016 BKN021 OVC026 15/13 A3009 RMK AO2 PK WND 35028/1135 WSHFT 1130 RAB27 P0001
KHBG 251053Z AUTO 20006KT 10SM BKN019 BKN024 OVC110 22/21 A3002 RMK AO2 SLP164 T02220206
KHBG 250953Z AUTO 22007KT 10SM BKN017 OVC022 22/21 A3001 RMK AO2 SLP158 T02220206
KHBG 250853Z AUTO 19006KT 10SM SCT016 BKN022 OVC027 22/21 A3000 RMK AO2 SLP156 T02220211 58014
KHBG 250753Z AUTO 19006KT 10SM OVC017 22/21 A3002 RMK AO2 SLP163 T02220211
KHBG 250712Z AUTO 19007KT 10SM BKN017 BKN090 22/21 A3003 RMK AO2 T02220211
KHBG 250653Z AUTO 20005KT 10SM FEW017 BKN095 22/21 A3004 RMK AO2 SLP168 T02170211
KHBG 250553Z AUTO 19009KT 10SM FEW060 22/21 A3004 RMK AO2 SLP170 T02220211 10244 20222 402780200 51006
KHBG 250537Z AUTO 19009KT 10SM FEW018 SCT024 BKN065 22/21 A3004 RMK AO2 T02220211
KHBG 250453Z AUTO 19007KT 10SM OVC017 23/21 A3004 RMK AO2 SLP170 T02280211
KHBG 250353Z AUTO 18009KT 10SM BKN015 OVC022 22/21 A3003 RMK AO2 SLP167 T02220211
KHBG 250312Z AUTO 18007KT 10SM BKN015 BKN022 22/21 A3003 RMK AO2 T02220206
KHBG 250253Z AUTO 17008KT 10SM CLR 22/21 A3002 RMK AO2 SLP164 T02220206 51007
KHBG 250153Z AUTO 16009KT 10SM CLR 22/21 A3002 RMK AO2 SLP163 T02220206
KHBG 250053Z AUTO 17011KT 10SM BKN090 23/20 A3001 RMK AO2 SLP157 T02330200
KHBG 242353Z AUTO 18014G18KT 10SM CLR 24/19 A3000 RMK AO2 SLP156 60000 T02440189 10278 20244 53010
KHBG 242253Z AUTO 18017G24KT 10SM CLR 26/18 A2998 RMK AO2 PK WND 18028/2238 SLP148 T02560178
KHBG 242153Z AUTO 17014G27KT 10SM BKN043 BKN065 26/18 A2997 RMK AO2 PK WND 20027/2105 SLP146 T02610183
KHBG 242053Z AUTO 18015G25KT 10SM FEW043 28/18 A2997 RMK AO2 SLP146 60000 T02780183 56036
KHBG 241953Z AUTO 18012G23KT 10SM SCT043 SCT055 BKN090 27/18 A3000 RMK AO2 RAB28E37 SLP156 P0000 T02670178
KHBG 241853Z AUTO 17014G24KT 10SM SCT043 BKN055 27/18 A3004 RMK AO2 SLP169 T02670183
KHBG 241753Z AUTO 17013KT 10SM SCT037 SCT044 BKN070 26/19 A3008 RMK AO2 SLP182 60005 T02610189 10267 20200 58016
KHBG 241702Z AUTO 21009KT 10SM SCT026 BKN035 25/21 A3010 RMK AO2 T02500206
KHBG 241653Z AUTO 21007G17KT 10SM FEW022 BKN029 BKN037 24/21 A3011 RMK AO2 RAB1559E15 SLP192 P0005 T02440206
KHBG 241651Z AUTO 18011G17KT 10SM BKN025 BKN036 BKN065 24/21 A3011 RMK AO2 RAB1559E15 P0005
KHBG 241623Z AUTO 19005KT 10SM SCT021 BKN033 BKN048 23/21 A3012 RMK AO2 RAB1559E15 P0005 T02330211
KHBG 241608Z AUTO 19007KT 3SM -RA BR BKN021 BKN029 OVC039 23/21 A3012 RMK AO2 RAB1559 P0005 T02280211
KHBG 241553Z AUTO 18010KT 10SM SCT023 BKN031 BKN041 24/21 A3013 RMK AO2 SLP198 T02390206
KHBG 241546Z AUTO 17009KT 10SM FEW018 SCT025 BKN031 24/21 A3013 RMK AO2 T02390206
KHBG 241526Z AUTO 18009KT 10SM SCT016 BKN020 BKN050 23/21 A3014 RMK AO2 T02330206
KHBG 241453Z AUTO 17008KT 10SM FEW012 BKN048 23/21 A3014 RMK AO2 SLP201 T02280211 53006
KHBG 241417Z AUTO 19006KT 10SM SCT008 BKN037 BKN095 22/21 A3013 RMK AO2 T02170206
KHBG 241353Z AUTO 19007KT 10SM BKN007 22/21 A3012 RMK AO2 SLP198 T02170211
KHBG 241351Z AUTO 18007KT 10SM BKN007 21/21 A3012 RMK AO2
KHBG 241342Z AUTO 17005KT 10SM SCT009 21/21 A3012 RMK AO2 T02110206
KHBG 241253Z AUTO 16004KT 10SM FEW017 20/20 A3012 RMK AO2 SLP196 T02000200
KHBG 241250Z AUTO 16005KT 10SM SCT017 21/20 A3012 RMK AO2
KHBG 241236Z AUTO 15006KT 10SM BKN016 21/21 A3012 RMK AO2 T02060206
KHBG 241206Z AUTO 16007KT 10SM BKN012 21/21 A3012 RMK AO2 T02060206
KHBG 241153Z AUTO 16006KT 10SM SCT014 BKN100 21/21 A3012 RMK AO2 SLP196 60001 70013 T02060206 10206 20200 55002
KHBG 241146Z AUTO 16006KT 10SM BKN014 BKN100 21/21 A3012 RMK AO2 T02060206
KHBG 241141Z AUTO 15006KT 10SM FEW012 SCT016 BKN100 21/21 A3012 RMK AO2 T02060206
KHBG 241115Z AUTO 15004KT 10SM SCT008 BKN017 OVC030 21/21 A3012 RMK AO2 T02060206
KHBG 241053Z AUTO 18003KT 10SM BKN008 BKN012 OVC095 21/21 A3012 RMK AO2 SLP195 T02060206
KHBG 240953Z AUTO 14004KT 10SM OVC007 20/20 A3011 RMK AO2 SLP194 T02000200
KHBG 240919Z AUTO 14004KT 10SM BKN007 BKN011 OVC055 20/20 A3012 RMK AO2 T02000200
KHBG 240909Z AUTO 16004KT 10SM BKN011 BKN022 OVC055 20/20 A3012 RMK AO2 CIG 008V013 T02000200
KHBG 240853Z AUTO 16004KT 10SM SCT011 BKN031 OVC055 21/21 A3012 RMK AO2 RAB30E42 SLP198 P0001 60001 T02060206 56015
KHBG 240849Z AUTO 16004KT 10SM SCT009 BKN021 OVC055 21/21 A3012 RMK AO2 RAB30E42 P0001
KHBG 240753Z AUTO 18006KT 10SM OVC007 21/21 A3015 RMK AO2 SLP206 T02060206
KHBG 240653Z AUTO 18004KT 10SM OVC009 21/21 A3017 RMK AO2 SLP212 T02060206
KHBG 240632Z AUTO 17005KT 10SM BKN009 OVC075 21/20 A3017 RMK AO2 T02060200
KHBG 240553Z AUTO 20005KT 10SM FEW038 BKN075 OVC090 21/20 A3017 RMK AO2 SLP212 60000 T02060200 10217 20200 402390167 58008
KHBG 240453Z AUTO 17005KT 10SM OVC070 21/20 A3018 RMK AO2 RAE03 SLP215 P0000 T02060200
KHBG 240353Z AUTO 14008KT 10SM -RA BKN075 21/20 A3019 RMK AO2 RAB47 SLP218 P0000 T02060200
KHBG 240253Z AUTO 13007KT 10SM FEW060 BKN100 BKN110 21/21 A3019 RMK AO2 SLP222 60000 T02060206 58002
KHBG 240153Z AUTO 13006KT 10SM SCT047 BKN080 OVC100 21/21 A3020 RMK AO2 SLP224 T02060206
KHBG 240053Z AUTO 17006KT 10SM SCT013 BKN070 OVC085 21/20 A3020 RMK AO2 RAB05E14B23E50 SLP225 P0000 T02060200
KHBG 240031Z AUTO 16008KT 10SM -RA SCT015 BKN065 OVC080 21/20 A3020 RMK AO2 RAB05E14B23 P0000 T02110200
KHBG 240022Z AUTO 16008KT 10SM BKN017 BKN055 OVC080 22/21 A3020 RMK AO2 RAB05E14 P0000 T02170206
KHBG 232353Z AUTO 16005KT 10SM OVC085 22/21 A3020 RMK AO2 SLP224 60012 T02170206 10239 20211 55003
KHBG 232253Z AUTO 16007KT 10SM FEW070 OVC090 23/21 A3019 RMK AO2 RAB2158E35 SLP223 P0001 T02280211
KHBG 232218Z AUTO 14004KT 9SM -RA SCT020 BKN037 OVC060 22/22 A3020 RMK AO2 RAB2158 P0001 T02220222
KHBG 232205Z AUTO 15003KT 8SM -RA SCT016 BKN025 OVC031 22/22 A3019 RMK AO2 RAB2158 P0001 T02170217
KHBG 232153Z AUTO 08003KT 10SM SCT025 BKN030 BKN100 22/22 A3019 RMK AO2 RAE12 SLP222 P0001 T02220217
KHBG 232136Z AUTO 06003KT 10SM FEW026 SCT031 BKN041 22/22 A3020 RMK AO2 RAE12 P0001 T02170217
KHBG 232104Z AUTO 04004KT 5SM -RA BR SCT019 BKN027 OVC036 21/21 A3021 RMK AO2 P0001 T02110211
KHBG 232053Z AUTO 03003KT 2 1/2SM -RA BR BKN024 OVC034 21/21 A3021 RMK AO2 SLP228 P0009 60010 T02110211 56033
KHBG 232047Z AUTO 00000KT 1 3/4SM RA BR BKN026 BKN033 OVC050 22/21 A3021 RMK AO2 VIS 3/4V5 P0007
KHBG 231953Z AUTO 00000KT 8SM -RA SCT037 BKN047 OVC080 23/20 A3023 RMK AO2 RAB27 SLP233 P0001 T02280200
KHBG 231853Z AUTO 08005KT 10SM SCT034 BKN120 23/19 A3026 RMK AO2 SLP244 T02330194
KHBG 231824Z AUTO 08004KT 10SM SCT026 BKN036 OVC043 23/19 A3029 RMK AO2 T02280194
KHBG 231753Z AUTO 07005KT 10SM OVC019 23/19 A3031 RMK AO2 SLP259 T02280194 10233 20183 58012
KHBG 231653Z AUTO 14004KT 10SM FEW014 BKN022 OVC120 23/19 A3033 RMK AO2 SLP267 T02280194
KHBG 231553Z AUTO 10006KT 10SM FEW009 OVC017 21/19 A3033 RMK AO2 SLP269 T02110194
KHBG 231453Z AUTO 06003KT 10SM FEW009 OVC017 20/19 A3034 RMK AO2 SLP272 T02000194 51018
KHBG 231446Z AUTO 08004KT 10SM SCT009 OVC017 20/19 A3034 RMK AO2 T02000194
KHBG 231425Z AUTO 12004KT 10SM OVC009 19/19 A3034 RMK AO2 CIG 008V013 T01940194
KHBG 231415Z AUTO 13004KT 10SM OVC010 19/19 A3033 RMK AO2 T01940189
KHBG 231400Z AUTO 00000KT 10SM OVC009 19/19 A3033 RMK AO2 CIG 008V013 T01940189
KHBG 231353Z AUTO 13003KT 10SM OVC010 19/19 A3033 RMK AO2 CIG 008V013 SLP267 T01940189
KHBG 231320Z AUTO 00000KT 10SM OVC011 19/19 A3032 RMK AO2 T01890189
KHBG 231311Z AUTO 15003KT 10SM OVC009 19/19 A3031 RMK AO2 CIG 008V014 T01890189
KHBG 231253Z AUTO 00000KT 10SM OVC010 18/18 A3031 RMK AO2 CIG 008V012 SLP260 T01830183
KHBG 231153Z AUTO 13004KT 10SM OVC012 18/18 A3029 RMK AO2 SLP253 T01830183 10194 20167 55000
KHBG 231135Z AUTO 17005KT 10SM OVC010 18/18 A3028 RMK AO2 T01830183
KHBG 231100Z AUTO 13004KT 7SM SCT003 OVC009 18/18 A3028 RMK AO2 T01830183
KHBG 231053Z AUTO 13005KT 5SM BR BKN003 OVC009 18/18 A3028 RMK AO2 SLP249 T01830183
KHBG 231048Z AUTO 12005KT 3SM BR BKN003 OVC009 18/18 A3028 RMK AO2
KHBG 231040Z AUTO 14004KT 1 1/4SM BR OVC003 18/18 A3028 RMK AO2 T01830183
KHBG 231014Z AUTO 12004KT 1/2SM FG VV002 18/18 A3027 RMK AO2 T01830183
KHBG 231004Z AUTO 14004KT 1/4SM FG VV002 18/18 A3027 RMK AO2 T01780178
KHBG 230953Z AUTO 15003KT 1/2SM FG VV002 18/18 A3027 RMK AO2 SLP248 T01780178
KHBG 230946Z AUTO 15003KT 1 3/4SM BR OVC002 18/18 A3028 RMK AO2 T01780178
KHBG 230937Z AUTO 00000KT 7SM BKN004 17/17 A3028 RMK AO2 T01670167
KHBG 230929Z AUTO 00000KT 9SM SCT004 17/17 A3028 RMK AO2 T01670167
KHBG 230853Z AUTO 12003KT 7SM SCT015 18/18 A3029 RMK AO2 SLP254 T01780178 58012
KHBG 230851Z AUTO 12003KT 6SM BR SCT015 18/18 A3029 RMK AO2
KHBG 230846Z AUTO 11003KT 2SM BR BKN015 18/18 A3029 RMK AO2 T01780178
KHBG 230837Z AUTO 11003KT 3/4SM BR FEW011 BKN017 18/18 A3030 RMK AO2 T01780178
KHBG 230829Z AUTO 00000KT 1SM BR VV017 18/18 A3030 RMK AO2 T01780178
KHBG 230813Z AUTO 13003KT 8SM SCT017 18/18 A3031 RMK AO2 T01830183
KHBG 230802Z AUTO 00000KT 8SM BKN018 19/19 A3031 RMK AO2 T01890189
KHBG 230753Z AUTO 09003KT 8SM FEW013 SCT018 19/19 A3032 RMK AO2 SLP263 T01890189
KHBG 230722Z AUTO 12003KT 10SM SCT012 19/19 A3032 RMK AO2 T01940189
KHBG 230711Z AUTO 16003KT 10SM BKN010 19/19 A3032 RMK AO2 CIG 006V013 T01940194
KHBG 230653Z AUTO 17005KT 10SM BKN009 19/19 A3033 RMK AO2 SLP266 T01940194
KHBG 230638Z AUTO 11003KT 8SM BKN007 BKN011 19/19 A3033 RMK AO2 T01940194
KHBG 230627Z AUTO 09003KT 8SM FEW006 SCT011 19/19 A3033 RMK AO2 T01890189
KHBG 230553Z AUTO 16004KT 10SM CLR 19/19 A3033 RMK AO2 SLP266 T01940194 10250 20194 402940194 58000
KHBG 230453Z AUTO 19007KT 10SM CLR 21/20 A3032 RMK AO2 SLP266 T02060200
KHBG 230353Z AUTO 17008KT 10SM CLR 21/20 A3033 RMK AO2 SLP267 T02110200
KHBG 230253Z AUTO 17006KT 10SM CLR 21/19 A3033 RMK AO2 SLP266 T02110194 51016
KHBG 230153Z AUTO 17004KT 10SM CLR 22/19 A3031 RMK AO2 SLP262 T02220194
KHBG 230053Z AUTO 17005KT 10SM CLR 23/19 A3030 RMK AO2 SLP256 T02280189
KHBG 222353Z AUTO 18009KT 10SM CLR 25/19 A3028 RMK AO2 SLP250 T02500189 10294 20250 53005
KHBG 222253Z AUTO 18012KT 10SM CLR 27/18 A3027 RMK AO2 SLP247 T02670183
KHBG 222153Z AUTO 18011G20KT 10SM CLR 28/18 A3026 RMK AO2 SLP243 T02780178
KHBG 222053Z AUTO 17010KT 10SM SCT046 28/18 A3026 RMK AO2 SLP245 T02830183 56022
KHBG 221953Z AUTO 18010KT 10SM FEW055 29/18 A3028 RMK AO2 SLP249 T02890183
KHBG 221853Z AUTO 18011G17KT 10SM FEW042 29/18 A3030 RMK AO2 SLP258 T02940183
KHBG 221753Z AUTO 17012G17KT 10SM FEW038 FEW046 FEW060 28/19 A3033 RMK AO2 SLP267 T02780189 10278 20200 58008
KHBG 221653Z AUTO 14009KT 10SM CLR 27/21 A3035 RMK AO2 SLP273 T02670206
KHBG 221553Z AUTO 16009KT 10SM FEW019 FEW041 25/21 A3036 RMK AO2 SLP276 T02500206
KHBG 221545Z AUTO 15007KT 10SM FEW019 FEW024 SCT041 25/21 A3036 RMK AO2 T02500211
KHBG 221526Z AUTO 00000KT 10SM SCT014 BKN022 OVC039 24/22 A3036 RMK AO2 T02390217
KHBG 221515Z AUTO 14004KT 10SM BKN012 BKN022 OVC032 24/22 A3035 RMK AO2 T02390217
KHBG 221453Z AUTO 13005KT 10SM OVC031 23/22 A3035 RMK AO2 SLP275 T02330217 53017
KHBG 221407Z AUTO 13004KT 8SM FEW017 SCT024 BKN030 22/22 A3034 RMK AO2 T02220217
KHBG 221353Z AUTO 12005KT 8SM FEW008 BKN022 OVC030 22/22 A3034 RMK AO2 SLP269 T02170217
KHBG 221337Z AUTO 12005KT 7SM BKN029 21/21 A3033 RMK AO2 T02110211